Time;durP1;ratioP1;P1;durP2;ratioP2;P2;SDS_P1;SDS_P2;PMS_P1;PMS_P2;Temp;Humidity;BMP_temperature;BMP_pressure;BME280_temperature;BME280_humidity;BME280_pressure;Samples;Min_cycle;Max_cycle;Signal;HPM_P1;HPM_P2
2023/06/05 00:03:17;;;;;;;5.50;2.85;;;;;;;;;;8257684;28;20069;-95
2023/06/05 00:07:21;;;;;;;5.70;3.10;;;;;;;;;;8251191;28;20106;-94
2023/06/05 00:11:25;;;;;;;11.32;3.38;;;;;;;;;;8240252;28;20137;-93
2023/06/05 00:15:28;;;;;;;5.35;3.30;;;;;;;;;;8269390;28;20050;-94
2023/06/05 00:19:34;;;;;;;5.03;3.15;;;;;;;;;;8270337;28;20073;-94
2023/06/05 00:23:37;;;;;;;3.95;2.92;;;;;;;;;;8256627;28;20129;-94
2023/06/05 00:27:41;;;;;;;5.95;3.33;;;;;;;;;;8269299;28;20084;-94
2023/06/05 00:31:45;;;;;;;5.53;3.38;;;;;;;;;;8269074;28;20057;-94
2023/06/05 00:35:50;;;;;;;4.63;2.90;;;;;;;;;;8256380;28;20058;-94
2023/06/05 00:39:53;;;;;;;6.68;3.60;;;;;;;;;;8258770;28;20495;-93
2023/06/05 00:43:56;;;;;;;5.22;3.53;;;;;;;;;;8253471;28;20054;-95
2023/06/05 00:48:00;;;;;;;6.03;3.75;;;;;;;;;;8268621;28;20140;-95
2023/06/05 00:52:05;;;;;;;5.93;3.45;;;;;;;;;;8255725;28;20043;-94
2023/06/05 00:56:08;;;;;;;4.20;2.70;;;;;;;;;;8268749;28;20482;-95
2023/06/05 01:00:13;;;;;;;4.97;3.00;;;;;;;;;;8247337;28;20065;-94
2023/06/05 01:04:16;;;;;;;5.55;3.25;;;;;;;;;;8267697;28;20054;-93
2023/06/05 01:08:24;;;;;;;6.28;3.55;;;;;;;;;;8248247;28;20133;-94
2023/06/05 01:12:32;;;;;;;6.60;3.00;;;;;;;;;;8267805;28;20089;-94
2023/06/05 01:16:35;;;;;;;6.32;3.08;;;;;;;;;;8254659;28;20081;-93
2023/06/05 01:20:41;;;;;;;6.20;3.67;;;;;;;;;;8254849;28;20055;-93
2023/06/05 01:24:47;;;;;;;4.93;3.25;;;;;;;;;;8267129;28;20153;-94
2023/06/05 01:28:51;;;;;;;8.68;4.30;;;;;;;;;;8267512;28;20061;-93
2023/06/05 01:33:02;;;;;;;6.20;4.00;;;;;;;;;;8254608;28;20058;-93
2023/06/05 01:37:08;;;;;;;6.28;3.65;;;;;;;;;;8254279;28;20054;-93
2023/06/05 01:41:14;;;;;;;5.80;3.70;;;;;;;;;;8254502;28;20054;-95
2023/06/05 01:45:18;;;;;;;5.43;3.58;;;;;;;;;;8253854;28;20061;-94
2023/06/05 01:49:21;;;;;;;6.43;3.92;;;;;;;;;;8267321;28;20065;-94
2023/06/05 01:53:25;;;;;;;4.90;3.20;;;;;;;;;;8267169;28;20054;-94
2023/06/05 01:57:31;;;;;;;6.28;3.42;;;;;;;;;;8254370;28;20050;-94
2023/06/05 02:01:34;;;;;;;6.00;3.58;;;;;;;;;;8237123;28;20465;-94
2023/06/05 02:05:38;;;;;;;3.80;2.80;;;;;;;;;;8236711;28;20062;-93
2023/06/05 02:09:41;;;;;;;5.82;3.72;;;;;;;;;;8266564;28;20418;-95
2023/06/05 02:13:49;;;;;;;5.50;3.55;;;;;;;;;;8267470;28;20061;-95
2023/06/05 02:17:53;;;;;;;5.40;3.45;;;;;;;;;;8256292;28;20521;-93
2023/06/05 02:21:56;;;;;;;7.00;3.38;;;;;;;;;;8272034;28;20051;-94
2023/06/05 02:25:59;;;;;;;176.40;40.38;;;;;;;;;;8272848;28;20050;-94
2023/06/05 02:30:04;;;;;;;831.17;254.57;;;;;;;;;;8273235;28;20505;-95
2023/06/05 02:34:07;;;;;;;355.98;90.63;;;;;;;;;;8260013;28;20101;-95
2023/06/05 02:38:12;;;;;;;126.25;42.80;;;;;;;;;;8273005;28;20511;-95
2023/06/05 02:42:16;;;;;;;126.70;35.67;;;;;;;;;;8242489;28;20066;-94
2023/06/05 02:46:21;;;;;;;14.65;6.38;;;;;;;;;;8259805;28;20062;-94
2023/06/05 02:50:24;;;;;;;11.65;5.70;;;;;;;;;;8268550;28;20050;-94
2023/06/05 02:54:28;;;;;;;8.07;4.35;;;;;;;;;;8246437;28;20057;-93
2023/06/05 02:58:33;;;;;;;8.20;3.50;;;;;;;;;;8253366;28;20062;-93
2023/06/05 03:02:37;;;;;;;15.05;8.05;;;;;;;;;;8262052;28;20055;-94
2023/06/05 03:06:43;;;;;;;7.35;3.95;;;;;;;;;;8252672;28;20059;-93
2023/06/05 03:10:46;;;;;;;6.47;4.35;;;;;;;;;;8258982;28;20054;-95
2023/06/05 03:14:50;;;;;;;11.63;5.68;;;;;;;;;;8259010;28;20058;-95
2023/06/05 03:18:55;;;;;;;6.50;4.20;;;;;;;;;;8241471;28;20061;-93
2023/06/05 03:22:58;;;;;;;6.88;3.70;;;;;;;;;;8254989;28;20054;-93
2023/06/05 03:27:01;;;;;;;7.72;3.13;;;;;;;;;;8270658;28;20479;-94
2023/06/05 03:31:05;;;;;;;9.68;3.33;;;;;;;;;;8267058;28;20047;-94
2023/06/05 03:35:10;;;;;;;5.05;3.00;;;;;;;;;;8245114;28;20054;-95
2023/06/05 03:39:14;;;;;;;5.65;3.20;;;;;;;;;;8270250;28;20058;-96
2023/06/05 03:43:17;;;;;;;5.97;3.40;;;;;;;;;;8253552;28;20430;-95
2023/06/05 03:47:21;;;;;;;6.45;3.05;;;;;;;;;;8271478;28;20054;-95
2023/06/05 03:51:29;;;;;;;5.85;3.33;;;;;;;;;;8253707;28;20058;-96
2023/06/05 03:55:37;;;;;;;7.72;3.25;;;;;;;;;;8249947;28;20069;-94
2023/06/05 03:59:41;;;;;;;4.50;2.67;;;;;;;;;;8247228;28;20137;-96
2023/06/05 04:03:44;;;;;;;6.13;2.90;;;;;;;;;;8244305;28;20065;-95
2023/06/05 04:07:50;;;;;;;4.38;3.00;;;;;;;;;;8255328;28;20061;-96
2023/06/05 04:11:53;;;;;;;5.38;3.63;;;;;;;;;;8243642;28;20070;-96
2023/06/05 04:16:04;;;;;;;5.53;3.40;;;;;;;;;;8280790;28;20046;-95
2023/06/05 06:05:15;;;;;;;7.45;2.40;;;;;;;;;;8263245;28;20094;-95
2023/06/05 06:15:07;;;;;;;3.83;1.95;;;;;;;;;;8086063;29;20395;-96
2023/06/05 06:19:29;;;;;;;6.50;3.05;;;;;;;;;;8081237;29;20178;-95
2023/06/05 06:28:37;;;;;;;11.70;5.70;;;;;;;;;;8061143;29;20158;-94
2023/06/05 06:32:57;;;;;;;9.30;3.15;;;;;;;;;;8099987;29;20055;-94
2023/06/05 06:37:19;;;;;;;5.07;2.00;;;;;;;;;;8164083;29;20094;-95
2023/06/05 06:46:15;;;;;;;6.07;1.60;;;;;;;;;;8138366;29;20060;-95
2023/06/05 07:05:10;;;;;;;4.70;1.95;;;;;;;;;;8050355;29;20472;-95
2023/06/05 07:14:00;;;;;;;8.23;2.05;;;;;;;;;;8013196;29;20062;-96
2023/06/05 07:18:03;;;;;;;6.00;2.55;;;;;;;;;;8021790;29;20106;-96
2023/06/05 07:27:20;;;;;;;9.20;3.50;;;;;;;;;;7998201;29;20149;-96
2023/06/05 07:31:29;;;;;;;4.95;1.90;;;;;;;;;;8027288;29;20062;-94
2023/06/05 07:35:51;;;;;;;2.17;1.50;;;;;;;;;;8004918;29;20060;-95
2023/06/05 07:40:03;;;;;;;7.18;4.72;;;;;;;;;;8024157;29;20061;-95
2023/06/05 07:44:10;;;;;;;8.40;2.05;;;;;;;;;;8084992;29;20064;-96
2023/06/05 07:48:26;;;;;;;1.73;1.17;;;;;;;;;;8108052;29;20171;-96
2023/06/05 07:53:09;;;;;;;1.58;1.30;;;;;;;;;;8075959;29;20084;-96
2023/06/05 07:57:48;;;;;;;4.43;1.65;;;;;;;;;;8162765;29;20493;-96
2023/06/05 08:02:05;;;;;;;3.05;1.40;;;;;;;;;;8153265;29;20875;-95
2023/06/05 08:19:41;;;;;;;;;;;;;;;;;;8249502;28;20153;-94
2023/06/05 08:23:56;;;;;;;2.08;1.60;;;;;;;;;;8253212;28;19922;-96
2023/06/05 08:28:08;;;;;;;2.63;1.42;;;;;;;;;;8240241;28;20158;-94
2023/06/05 08:32:11;;;;;;;5.88;1.30;;;;;;;;;;8241587;28;20432;-92
2023/06/05 08:36:17;;;;;;;2.97;1.52;;;;;;;;;;8238829;28;20102;-95
2023/06/05 08:40:36;;;;;;;6.05;1.52;;;;;;;;;;8242318;28;20050;-94
2023/06/05 08:48:53;;;;;;;3.30;1.50;;;;;;;;;;8282832;23;20089;-95
2023/06/05 08:53:16;;;;;;;3.42;1.73;;;;;;;;;;8279090;28;20046;-94
2023/06/05 08:57:21;;;;;;;6.95;2.00;;;;;;;;;;8287501;28;20058;-94
2023/06/05 09:01:26;;;;;;;11.18;2.42;;;;;;;;;;8276989;28;20061;-93
2023/06/05 09:05:31;;;;;;;5.50;1.90;;;;;;;;;;8265118;28;20058;-93
2023/06/05 09:09:36;;;;;;;2.80;1.50;;;;;;;;;;8264943;28;20050;-93
2023/06/05 09:13:46;;;;;;;3.72;2.40;;;;;;;;;;8282557;28;20095;-93
2023/06/05 09:17:49;;;;;;;2.38;1.25;;;;;;;;;;8278483;28;20534;-93
2023/06/05 09:21:58;;;;;;;9.93;2.30;;;;;;;;;;8271582;28;20062;-93
2023/06/05 09:26:03;;;;;;;1.90;1.40;;;;;;;;;;8269878;28;20197;-93
2023/06/05 09:30:09;;;;;;;3.75;1.75;;;;;;;;;;8272384;28;20490;-93
2023/06/05 09:34:25;;;;;;;3.78;1.65;;;;;;;;;;8284244;28;20128;-93
2023/06/05 09:38:30;;;;;;;3.35;1.65;;;;;;;;;;8289569;28;20049;-94
2023/06/05 09:42:36;;;;;;;17.67;8.88;;;;;;;;;;8283763;28;20085;-93
2023/06/05 09:46:53;;;;;;;3.60;1.45;;;;;;;;;;8310330;28;20053;-95
2023/06/05 09:51:10;;;;;;;3.28;1.60;;;;;;;;;;8339512;28;20124;-92
2023/06/05 09:55:16;;;;;;;4.38;2.03;;;;;;;;;;8350713;28;20052;-93
2023/06/05 09:59:24;;;;;;;8.88;6.55;;;;;;;;;;8329303;28;20545;-92
2023/06/05 10:03:31;;;;;;;5.38;2.90;;;;;;;;;;8327998;28;20053;-94
2023/06/05 10:07:38;;;;;;;5.15;2.60;;;;;;;;;;8325438;28;20061;-93
2023/06/05 10:11:43;;;;;;;3.03;1.80;;;;;;;;;;8340263;28;20060;-93
2023/06/05 10:15:47;;;;;;;1.92;1.52;;;;;;;;;;8332060;28;20049;-93
2023/06/05 10:19:51;;;;;;;3.20;1.73;;;;;;;;;;8354607;28;20467;-93
2023/06/05 10:23:59;;;;;;;4.15;2.25;;;;;;;;;;8337056;28;20509;-96
2023/06/05 10:28:28;;;;;;;5.88;1.67;;;;;;;;;;8338719;28;20494;-94
2023/06/05 10:32:41;;;;;;;7.07;1.70;;;;;;;;;;8334535;23;20305;-92
2023/06/05 10:37:07;;;;;;;4.03;1.60;;;;;;;;;;8296284;28;20069;-92
2023/06/05 10:41:12;;;;;;;22.23;2.42;;;;;;;;;;8288641;28;20435;-92
2023/06/05 10:45:31;;;;;;;12.90;2.50;;;;;;;;;;8303035;28;20084;-94
2023/06/05 10:49:34;;;;;;;2.78;1.63;;;;;;;;;;8313697;28;20072;-92
2023/06/05 10:53:46;;;;;;;4.45;2.08;;;;;;;;;;8304800;28;20058;-96
2023/06/05 10:58:04;;;;;;;;;;;;;;;;;;8284298;28;20050;-93
2023/06/05 11:02:29;;;;;;;3.80;2.08;;;;;;;;;;8298336;28;20019;-92
2023/06/05 11:06:33;;;;;;;3.58;1.80;;;;;;;;;;8272603;28;20517;-95
2023/06/05 11:11:05;;;;;;;4.78;1.88;;;;;;;;;;8289713;28;20050;-93
2023/06/05 11:15:10;;;;;;;3.35;1.88;;;;;;;;;;8288995;28;20057;-91
2023/06/05 11:19:45;;;;;;;3.53;1.80;;;;;;;;;;8303728;28;20465;-92
2023/06/05 11:24:23;;;;;;;6.05;2.28;;;;;;;;;;8303179;28;20073;-91
2023/06/05 11:28:45;;;;;;;5.13;2.13;;;;;;;;;;8306079;28;20112;-91
2023/06/05 11:32:58;;;;;;;6.00;2.67;;;;;;;;;;8285697;28;20059;-91
2023/06/05 11:37:18;;;;;;;8.75;3.55;;;;;;;;;;8305859;28;20081;-90
2023/06/05 11:41:25;;;;;;;3.97;1.90;;;;;;;;;;8303504;28;20054;-93
2023/06/05 11:45:31;;;;;;;5.35;2.33;;;;;;;;;;8270390;28;20560;-91
2023/06/05 11:49:34;;;;;;;2.70;1.70;;;;;;;;;;8286182;28;20058;-95
2023/06/05 11:53:47;;;;;;;3.35;1.98;;;;;;;;;;8304545;28;20410;-92
2023/06/05 11:57:50;;;;;;;3.22;2.00;;;;;;;;;;8292263;28;20137;-93
2023/06/05 12:01:54;;;;;;;14.85;5.22;;;;;;;;;;8305269;28;20057;-91
2023/06/05 12:05:58;;;;;;;3.67;1.90;;;;;;;;;;8306086;28;20054;-95
2023/06/05 12:10:03;;;;;;;5.38;2.20;;;;;;;;;;8291435;28;20058;-92
2023/06/05 12:14:07;;;;;;;3.70;1.75;;;;;;;;;;8291974;28;20057;-92
2023/06/05 12:18:25;;;;;;;4.68;2.15;;;;;;;;;;8298942;28;20050;-92
2023/06/05 12:22:43;;;;;;;2.40;1.67;;;;;;;;;;8286077;28;20068;-92
2023/06/05 12:26:54;;;;;;;2.88;2.10;;;;;;;;;;8299861;28;20050;-92
2023/06/05 12:31:09;;;;;;;2.95;1.60;;;;;;;;;;8299917;28;20065;-91
2023/06/05 12:35:20;;;;;;;3.33;1.83;;;;;;;;;;8253580;28;20089;-91
2023/06/05 12:39:34;;;;;;;4.97;1.70;;;;;;;;;;8248730;28;20058;-93
2023/06/05 12:43:39;;;;;;;4.82;2.10;;;;;;;;;;8267546;28;20054;-93
2023/06/05 12:47:47;;;;;;;4.05;2.17;;;;;;;;;;8262927;28;20054;-94
2023/06/05 12:51:50;;;;;;;2.03;1.67;;;;;;;;;;8268944;28;20515;-95
2023/06/05 12:55:53;;;;;;;4.05;1.60;;;;;;;;;;8258641;28;20133;-91
2023/06/05 13:05:29;;;;;;;6.38;2.17;;;;;;;;;;8565830;23;20205;-93
2023/06/05 13:09:32;;;;;;;9.68;6.10;;;;;;;;;;8293764;28;20046;-94
2023/06/05 13:13:37;;;;;;;6.10;1.80;;;;;;;;;;8318097;28;20054;-93
2023/06/05 13:17:40;;;;;;;1.73;1.42;;;;;;;;;;8311447;28;20057;-94
2023/06/05 13:21:46;;;;;;;2.42;1.70;;;;;;;;;;8320093;28;20135;-94
2023/06/05 13:25:52;;;;;;;2.33;1.50;;;;;;;;;;8315663;28;20452;-93
2023/06/05 13:29:55;;;;;;;3.92;1.90;;;;;;;;;;8326373;28;20493;-91
2023/06/05 13:34:01;;;;;;;7.28;1.83;;;;;;;;;;8322917;28;20061;-92
2023/06/05 13:38:10;;;;;;;4.80;1.63;;;;;;;;;;8309941;28;20494;-94
2023/06/05 13:42:15;;;;;;;5.15;2.05;;;;;;;;;;8308198;28;20084;-94
2023/06/05 13:46:18;;;;;;;4.85;2.17;;;;;;;;;;8315794;28;20136;-93
2023/06/05 13:50:21;;;;;;;6.03;1.70;;;;;;;;;;8314549;28;20060;-92
2023/06/05 13:54:26;;;;;;;3.65;1.80;;;;;;;;;;8316632;28;20067;-94
2023/06/05 13:58:29;;;;;;;5.03;1.92;;;;;;;;;;8309153;28;20053;-92
2023/06/05 14:02:32;;;;;;;5.47;2.10;;;;;;;;;;8301917;28;20054;-93
2023/06/05 14:06:38;;;;;;;3.95;1.73;;;;;;;;;;8310732;28;20144;-92
2023/06/05 14:10:42;;;;;;;6.03;2.10;;;;;;;;;;8316616;28;20132;-94
2023/06/05 14:14:45;;;;;;;4.35;1.90;;;;;;;;;;8313958;28;20042;-92
2023/06/05 14:18:49;;;;;;;3.65;1.75;;;;;;;;;;8305291;28;20490;-93
2023/06/05 14:22:52;;;;;;;2.97;1.92;;;;;;;;;;8317970;28;20777;-92
2023/06/05 14:26:57;;;;;;;4.03;1.63;;;;;;;;;;8304648;28;20498;-95
2023/06/05 14:31:00;;;;;;;3.80;1.70;;;;;;;;;;8334421;28;20080;-93
2023/06/05 14:35:04;;;;;;;3.40;1.92;;;;;;;;;;8337331;28;20119;-93
2023/06/05 14:39:07;;;;;;;3.58;2.10;;;;;;;;;;8319219;28;20050;-95
2023/06/05 14:43:12;;;;;;;3.38;2.13;;;;;;;;;;8316523;28;20141;-92
2023/06/05 14:47:15;;;;;;;1.95;1.70;;;;;;;;;;8316570;28;20144;-92
2023/06/05 14:51:18;;;;;;;4.35;2.00;;;;;;;;;;8314797;28;20128;-93
2023/06/05 14:55:21;;;;;;;7.18;1.98;;;;;;;;;;8299856;28;20046;-94
2023/06/05 14:59:25;;;;;;;4.47;2.03;;;;;;;;;;8315092;28;20056;-91
2023/06/05 15:03:34;;;;;;;3.08;2.15;;;;;;;;;;8329506;28;20053;-93
2023/06/05 15:07:39;;;;;;;3.90;1.80;;;;;;;;;;8303813;28;20425;-92
2023/06/05 15:11:42;;;;;;;3.00;1.60;;;;;;;;;;8310944;28;20140;-94
2023/06/05 15:15:46;;;;;;;2.40;1.67;;;;;;;;;;8303790;28;20060;-93
2023/06/05 15:19:55;;;;;;;4.28;1.92;;;;;;;;;;8305918;28;20088;-92
2023/06/05 15:23:58;;;;;;;3.47;1.88;;;;;;;;;;8304497;28;20421;-94
2023/06/05 15:28:01;;;;;;;2.00;1.70;;;;;;;;;;8316623;28;20104;-93
2023/06/05 15:32:06;;;;;;;4.32;1.90;;;;;;;;;;8320894;28;20498;-91
2023/06/05 15:36:13;;;;;;;3.13;1.90;;;;;;;;;;8314316;28;20064;-93
2023/06/05 15:40:46;;;;;;;3.17;1.70;;;;;;;;;;8309909;28;20057;-92
2023/06/05 15:44:55;;;;;;;3.05;1.98;;;;;;;;;;8301483;28;20140;-93
2023/06/05 15:49:33;;;;;;;3.67;1.83;;;;;;;;;;8310880;28;20057;-92
2023/06/05 15:53:43;;;;;;;4.55;1.95;;;;;;;;;;8333528;28;20084;-93
2023/06/05 15:58:06;;;;;;;3.63;1.80;;;;;;;;;;8319607;28;20080;-91
2023/06/05 16:02:26;;;;;;;4.57;1.80;;;;;;;;;;8291609;28;20111;-94
2023/06/05 16:06:31;;;;;;;5.72;1.90;;;;;;;;;;8319326;28;20468;-94
2023/06/05 16:10:35;;;;;;;3.03;1.92;;;;;;;;;;8320780;28;20049;-93
2023/06/05 16:14:38;;;;;;;4.40;2.05;;;;;;;;;;8331774;28;20065;-95
2023/06/05 16:18:41;;;;;;;4.78;1.80;;;;;;;;;;8333858;28;20053;-94
2023/06/05 16:22:46;;;;;;;3.80;2.35;;;;;;;;;;8319727;28;20058;-93
2023/06/05 16:26:49;;;;;;;3.03;1.80;;;;;;;;;;8324980;28;20095;-93
2023/06/05 16:30:52;;;;;;;3.88;2.10;;;;;;;;;;8320834;28;20525;-96
2023/06/05 16:34:55;;;;;;;2.67;1.77;;;;;;;;;;8318290;28;20056;-94
2023/06/05 16:39:00;;;;;;;2.15;1.58;;;;;;;;;;8319137;28;20064;-94
2023/06/05 16:43:03;;;;;;;3.90;2.00;;;;;;;;;;8313162;28;20080;-94
2023/06/05 16:47:07;;;;;;;4.20;2.03;;;;;;;;;;8315066;28;20057;-93
2023/06/05 16:51:10;;;;;;;4.75;1.90;;;;;;;;;;8322560;28;20053;-94
2023/06/05 16:55:15;;;;;;;4.10;1.75;;;;;;;;;;8333227;28;20382;-94
2023/06/05 16:59:19;;;;;;;3.80;2.10;;;;;;;;;;8326192;28;20049;-94
2023/06/05 17:03:22;;;;;;;4.13;1.70;;;;;;;;;;8347204;23;20049;-95
2023/06/05 17:07:28;;;;;;;3.58;1.90;;;;;;;;;;8375415;23;20054;-94
2023/06/05 17:11:55;;;;;;;3.72;2.15;;;;;;;;;;8242852;28;20053;-96
2023/06/05 17:16:13;;;;;;;2.63;1.77;;;;;;;;;;8263377;28;20058;-95
2023/06/05 17:20:19;;;;;;;3.25;2.00;;;;;;;;;;8252284;28;20053;-94
2023/06/05 17:24:24;;;;;;;8.93;4.60;;;;;;;;;;8249059;28;20058;-95
2023/06/05 17:28:28;;;;;;;5.88;2.25;;;;;;;;;;8257657;28;20153;-95
2023/06/05 17:32:31;;;;;;;2.60;1.70;;;;;;;;;;8267051;28;20140;-94
2023/06/05 17:36:35;;;;;;;5.15;2.60;;;;;;;;;;8253680;28;20051;-95
2023/06/05 17:40:39;;;;;;;5.68;2.78;;;;;;;;;;8264633;28;20513;-94
2023/06/05 17:44:44;;;;;;;4.05;2.00;;;;;;;;;;8255331;28;20051;-92
2023/06/05 17:48:47;;;;;;;8.50;2.22;;;;;;;;;;8252739;28;20061;-91
2023/06/05 17:52:52;;;;;;;5.45;2.20;;;;;;;;;;8254729;28;20061;-93
2023/06/05 17:56:57;;;;;;;3.08;1.80;;;;;;;;;;8253565;28;20471;-93
2023/06/05 18:01:02;;;;;;;7.40;3.00;;;;;;;;;;8250561;28;20061;-93
2023/06/05 18:05:05;;;;;;;11.48;3.00;;;;;;;;;;8247758;28;20137;-93
2023/06/05 18:09:09;;;;;;;12.18;3.75;;;;;;;;;;8269699;28;20097;-93
2023/06/05 18:13:12;;;;;;;93.82;20.00;;;;;;;;;;8297675;28;20065;-93
2023/06/05 18:17:17;;;;;;;46.03;14.05;;;;;;;;;;8300429;28;20054;-93
2023/06/05 18:21:20;;;;;;;9.68;3.75;;;;;;;;;;8291844;28;20523;-95
2023/06/05 18:25:24;;;;;;;7.70;3.33;;;;;;;;;;8288606;28;20061;-93
2023/06/05 18:29:27;;;;;;;7.10;2.40;;;;;;;;;;8266982;28;20410;-93
2023/06/05 18:33:32;;;;;;;8.95;4.10;;;;;;;;;;8265381;28;20414;-94
2023/06/05 18:37:40;;;;;;;7.78;3.40;;;;;;;;;;8297215;28;20062;-93
2023/06/05 18:41:44;;;;;;;8.18;2.30;;;;;;;;;;8272493;28;20065;-94
2023/06/05 18:45:48;;;;;;;7.53;2.80;;;;;;;;;;8278171;28;20101;-94
2023/06/05 18:49:53;;;;;;;9.43;4.60;;;;;;;;;;8278360;28;20065;-93
2023/06/05 18:53:56;;;;;;;4.90;2.28;;;;;;;;;;8284472;28;20054;-93
2023/06/05 18:58:00;;;;;;;7.03;2.75;;;;;;;;;;8301302;28;20049;-93
2023/06/05 19:02:05;;;;;;;4.07;2.20;;;;;;;;;;8294383;28;20081;-93
2023/06/05 19:06:09;;;;;;;4.28;2.40;;;;;;;;;;8293265;28;20050;-95
2023/06/05 19:10:13;;;;;;;5.10;2.50;;;;;;;;;;8304152;28;20060;-93
2023/06/05 19:14:17;;;;;;;7.07;3.08;;;;;;;;;;8286991;28;20050;-94
2023/06/05 19:18:20;;;;;;;3.08;2.15;;;;;;;;;;8283719;28;20112;-94
2023/06/05 19:22:28;;;;;;;6.75;2.33;;;;;;;;;;8275984;28;20513;-94
2023/06/05 19:26:32;;;;;;;5.13;2.22;;;;;;;;;;8284574;28;20074;-93
2023/06/05 19:30:35;;;;;;;5.10;2.30;;;;;;;;;;8284346;28;20054;-94
2023/06/05 19:34:39;;;;;;;5.47;2.40;;;;;;;;;;8289496;28;20057;-94
2023/06/05 19:38:44;;;;;;;4.47;2.38;;;;;;;;;;8297055;28;20074;-94
2023/06/05 19:42:49;;;;;;;5.40;2.45;;;;;;;;;;8278568;28;20056;-95
2023/06/05 19:46:53;;;;;;;3.88;2.47;;;;;;;;;;8303145;28;20053;-95
2023/06/05 19:50:56;;;;;;;3.67;2.53;;;;;;;;;;8303287;28;20141;-93
2023/06/05 19:55:02;;;;;;;4.90;2.40;;;;;;;;;;8302736;28;20053;-93
2023/06/05 19:59:07;;;;;;;6.25;2.75;;;;;;;;;;8282030;28;20384;-94
2023/06/05 20:03:12;;;;;;;6.45;2.97;;;;;;;;;;8283228;28;20057;-94
2023/06/05 20:07:16;;;;;;;12.60;6.55;;;;;;;;;;8292130;28;20422;-94
2023/06/05 20:11:21;;;;;;;17.40;6.70;;;;;;;;;;8289137;28;20062;-94
2023/06/05 20:15:25;;;;;;;6.85;3.28;;;;;;;;;;8289249;28;20189;-94
2023/06/05 20:19:28;;;;;;;5.25;2.92;;;;;;;;;;8302426;28;20054;-94
2023/06/05 20:23:32;;;;;;;6.78;3.47;;;;;;;;;;8281693;28;20057;-94
2023/06/05 20:27:37;;;;;;;7.90;3.85;;;;;;;;;;8281042;28;20148;-94
2023/06/05 20:31:40;;;;;;;11.60;4.25;;;;;;;;;;8289169;28;20058;-94
2023/06/05 20:35:46;;;;;;;10.57;4.38;;;;;;;;;;8273023;28;20417;-94
2023/06/05 20:39:50;;;;;;;7.03;3.92;;;;;;;;;;8282674;28;20113;-94
2023/06/05 20:43:55;;;;;;;5.07;2.85;;;;;;;;;;8298310;28;20061;-95
2023/06/05 20:48:00;;;;;;;4.25;2.50;;;;;;;;;;8289889;28;20054;-94
2023/06/05 20:52:03;;;;;;;5.40;2.70;;;;;;;;;;8286577;28;20391;-94
2023/06/05 20:56:06;;;;;;;7.85;3.10;;;;;;;;;;8277272;28;20514;-94
2023/06/05 21:00:12;;;;;;;6.05;3.00;;;;;;;;;;8282026;28;20470;-93
2023/06/05 21:04:16;;;;;;;13.38;4.47;;;;;;;;;;8293065;28;20057;-93
2023/06/05 21:08:19;;;;;;;6.72;3.03;;;;;;;;;;8269534;28;20058;-94
2023/06/05 21:12:22;;;;;;;6.28;3.30;;;;;;;;;;8292809;28;20058;-93
2023/06/05 21:16:28;;;;;;;7.18;3.42;;;;;;;;;;8300391;28;20049;-94
2023/06/05 21:20:31;;;;;;;7.28;3.28;;;;;;;;;;8278133;28;20572;-94
2023/06/05 21:24:35;;;;;;;6.15;3.05;;;;;;;;;;8285810;28;20461;-94
2023/06/05 21:28:38;;;;;;;4.43;2.58;;;;;;;;;;8288403;28;20458;-94
2023/06/05 21:32:43;;;;;;;6.97;3.08;;;;;;;;;;8297942;28;20631;-95
2023/06/05 21:36:47;;;;;;;7.40;3.20;;;;;;;;;;8288912;28;20535;-94
2023/06/05 21:40:50;;;;;;;6.13;3.25;;;;;;;;;;8298045;28;20062;-94
2023/06/05 21:44:54;;;;;;;4.90;3.17;;;;;;;;;;8298933;28;20054;-94
2023/06/05 21:48:59;;;;;;;6.00;3.20;;;;;;;;;;8287132;28;20486;-95
2023/06/05 21:53:03;;;;;;;8.23;3.30;;;;;;;;;;8286847;28;20108;-94
2023/06/05 21:57:07;;;;;;;6.75;3.88;;;;;;;;;;8271921;28;20052;-94
2023/06/05 22:01:10;;;;;;;5.47;3.90;;;;;;;;;;8299518;28;20512;-94
2023/06/05 22:05:15;;;;;;;5.07;3.05;;;;;;;;;;8281975;28;20121;-94
2023/06/05 22:09:18;;;;;;;7.25;3.10;;;;;;;;;;8291563;28;20054;-94
2023/06/05 22:13:28;;;;;;;5.82;3.15;;;;;;;;;;8299195;28;20403;-94
2023/06/05 22:17:31;;;;;;;5.28;3.40;;;;;;;;;;8292152;28;20531;-93
2023/06/05 22:21:38;;;;;;;5.65;3.38;;;;;;;;;;8286025;28;20054;-94
2023/06/05 22:25:40;;;;;;;6.40;3.20;;;;;;;;;;8278864;28;20498;-94
2023/06/05 22:29:44;;;;;;;7.22;3.22;;;;;;;;;;8286390;28;20085;-94
2023/06/05 22:33:48;;;;;;;5.95;3.03;;;;;;;;;;8290629;28;20502;-94
2023/06/05 22:37:52;;;;;;;4.95;2.92;;;;;;;;;;8291603;28;20092;-95
2023/06/05 22:41:56;;;;;;;7.97;3.30;;;;;;;;;;8279445;28;20097;-95
2023/06/05 22:45:59;;;;;;;6.55;3.03;;;;;;;;;;8292416;28;20144;-95
2023/06/05 22:50:03;;;;;;;5.28;3.20;;;;;;;;;;8291933;28;20055;-93
2023/06/05 22:54:07;;;;;;;4.32;2.97;;;;;;;;;;8304190;28;20057;-96
2023/06/05 22:58:11;;;;;;;6.53;2.95;;;;;;;;;;8291193;28;20053;-93
2023/06/05 23:02:14;;;;;;;6.45;3.10;;;;;;;;;;8292298;28;20061;-94
2023/06/05 23:06:18;;;;;;;7.53;3.35;;;;;;;;;;8290544;28;20392;-94
2023/06/05 23:10:23;;;;;;;7.43;3.40;;;;;;;;;;8291810;28;20157;-93
2023/06/05 23:14:26;;;;;;;5.82;3.60;;;;;;;;;;8291272;28;20542;-94
2023/06/05 23:18:29;;;;;;;7.22;3.10;;;;;;;;;;8271816;28;20193;-94
2023/06/05 23:22:31;;;;;;;4.97;3.20;;;;;;;;;;8294439;28;20085;-94
2023/06/05 23:26:36;;;;;;;4.65;3.05;;;;;;;;;;8302499;28;20115;-95
2023/06/05 23:30:39;;;;;;;4.97;3.30;;;;;;;;;;8303030;28;20053;-94
2023/06/05 23:34:42;;;;;;;5.53;3.22;;;;;;;;;;8291914;28;20548;-93
2023/06/05 23:38:47;;;;;;;4.85;3.25;;;;;;;;;;8290462;28;20565;-93
2023/06/05 23:42:51;;;;;;;5.05;3.20;;;;;;;;;;8302840;28;20387;-94
2023/06/05 23:46:55;;;;;;;6.63;3.42;;;;;;;;;;8302165;28;20065;-93
2023/06/05 23:50:57;;;;;;;5.55;3.28;;;;;;;;;;8290776;28;20050;-93
2023/06/05 23:55:03;;;;;;;5.40;3.50;;;;;;;;;;8301373;28;20058;-94
2023/06/05 23:59:08;;;;;;;10.95;4.15;;;;;;;;;;8290053;28;20100;-94
